Time,TemperatureF,DewpointF,PressureIn,WindDirection,WindDirectionDegrees,WindSpeedMPH,WindSpeedGustMPH,Humidity,HourlyPrecipIn,Conditions,Clouds,dailyrainin,SolarRadiationWatts/m^2,SoftwareType,DateUTC
2013-04-25 00:00:00,52.8,24.0,30.02,NNE,19,2.0,-999.0,20,-99.99,,,0.00,0.0,cwc,2013-04-25 06:00:00,
2013-04-25 00:05:00,52.6,24.2,30.02,NNE,22,1.0,-999.0,21,-99.99,,,0.00,0.0,cwc,2013-04-25 06:05:00,
2013-04-25 00:10:00,52.4,24.0,30.02,NNE,22,1.0,-999.0,21,-99.99,,,0.00,0.0,cwc,2013-04-25 06:10:00,
2013-04-25 00:15:00,52.2,24.1,30.01,NNE,19,4.0,-999.0,22,-99.99,,,0.00,0.0,cwc,2013-04-25 06:15:00,
2013-04-25 00:20:00,51.9,23.8,30.01,NNE,20,2.0,-999.0,22,-99.99,,,0.00,0.0,cwc,2013-04-25 06:20:00,
2013-04-25 00:25:00,51.8,24.1,30.02,NNE,20,0.0,-999.0,23,-99.99,,,0.00,0.0,cwc,2013-04-25 06:25:00,
2013-04-25 00:30:00,51.6,23.9,30.02,NNE,19,0.0,-999.0,23,-99.99,,,0.00,0.0,cwc,2013-04-25 06:30:00,
2013-04-25 00:35:00,51.4,23.7,30.02,NNE,20,2.0,-999.0,23,-99.99,,,0.00,0.0,cwc,2013-04-25 06:35:00,
2013-04-25 00:40:00,51.1,23.7,30.02,NNE,20,1.0,-999.0,24,-99.99,,,0.00,0.0,cwc,2013-04-25 06:40:00,
2013-04-25 00:45:00,50.9,23.5,30.02,NNE,20,0.0,-999.0,24,-99.99,,,0.00,0.0,cwc,2013-04-25 06:45:00,
2013-04-25 00:50:00,50.7,23.7,30.02,NNE,20,2.0,-999.0,25,-99.99,,,0.00,0.0,cwc,2013-04-25 06:50:00,
2013-04-25 00:55:00,50.6,23.6,30.03,NNE,19,0.0,-999.0,25,-99.99,,,0.00,0.0,cwc,2013-04-25 06:55:00,
2013-04-25 01:00:00,50.4,23.4,30.03,NNE,20,1.0,-999.0,25,-99.99,,,0.00,0.0,cwc,2013-04-25 07:00:00,
2013-04-25 01:05:00,50.2,23.2,30.03,NNE,20,0.0,-999.0,25,-99.99,,,0.00,0.0,cwc,2013-04-25 07:05:00,
2013-04-25 01:10:00,49.8,22.8,30.03,NNE,20,0.0,-999.0,25,-99.99,,,0.00,0.0,cwc,2013-04-25 07:10:00,
2013-04-25 01:15:00,49.1,22.1,30.03,NNE,20,2.0,-999.0,25,-99.99,,,0.00,0.0,cwc,2013-04-25 07:15:00,
2013-04-25 01:20:00,48.1,21.5,30.03,NNE,20,4.0,-999.0,26,-99.99,,,0.00,0.0,cwc,2013-04-25 07:20:00,
2013-04-25 01:25:00,47.5,20.9,30.03,NNE,20,3.0,-999.0,26,-99.99,,,0.00,0.0,cwc,2013-04-25 07:25:00,
2013-04-25 01:30:00,47.4,20.8,30.03,NNE,19,0.0,-999.0,26,-99.99,,,0.00,0.0,cwc,2013-04-25 07:30:00,
2013-04-25 01:35:00,47.1,20.5,30.03,NNE,20,1.0,-999.0,26,-99.99,,,0.00,0.0,cwc,2013-04-25 07:35:00,
2013-04-25 01:40:00,47.0,21.4,30.03,NNE,20,0.0,-999.0,29,-99.99,,,0.00,0.0,cwc,2013-04-25 07:40:00,
2013-04-25 01:45:00,46.8,20.5,30.03,NNE,19,2.0,-999.0,27,-99.99,,,0.00,0.0,cwc,2013-04-25 07:45:00,
2013-04-25 01:50:00,46.3,20.0,30.02,NNE,19,2.0,-999.0,27,-99.99,,,0.00,0.0,cwc,2013-04-25 07:50:00,
2013-04-25 01:55:00,46.2,20.3,30.03,NNE,20,0.0,-999.0,28,-99.99,,,0.00,0.0,cwc,2013-04-25 07:55:00,
2013-04-25 02:00:00,46.1,20.2,30.03,NNE,20,1.0,-999.0,28,-99.99,,,0.00,0.0,cwc,2013-04-25 08:00:00,
2013-04-25 02:05:00,46.0,20.1,30.03,NNE,20,0.0,-999.0,28,-99.99,,,0.00,0.0,cwc,2013-04-25 08:05:00,
2013-04-25 02:10:00,46.0,21.2,30.03,NNE,19,1.0,-999.0,31,-99.99,,,0.00,0.0,cwc,2013-04-25 08:10:00,
2013-04-25 02:15:00,46.3,21.5,30.03,NNE,20,0.0,-999.0,31,-99.99,,,0.00,0.0,cwc,2013-04-25 08:15:00,
2013-04-25 02:20:00,46.7,22.2,30.03,NNE,20,2.0,-999.0,32,-99.99,,,0.00,0.0,cwc,2013-04-25 08:20:00,
2013-04-25 02:25:00,47.2,22.4,30.03,NNE,19,0.0,-999.0,31,-99.99,,,0.00,0.0,cwc,2013-04-25 08:25:00,
2013-04-25 02:30:00,47.4,22.6,30.03,NNE,19,0.0,-999.0,31,-99.99,,,0.00,0.0,cwc,2013-04-25 08:30:00,
2013-04-25 02:35:00,47.3,22.5,30.03,NNE,20,0.0,-999.0,31,-99.99,,,0.00,0.0,cwc,2013-04-25 08:35:00,
2013-04-25 02:40:00,47.3,22.8,30.02,NNE,20,0.0,-999.0,32,-99.99,,,0.00,0.0,cwc,2013-04-25 08:40:00,
2013-04-25 02:45:00,47.2,22.0,30.02,NNE,19,0.0,-999.0,30,-99.99,,,0.00,0.0,cwc,2013-04-25 08:45:00,
2013-04-25 02:50:00,47.2,22.7,30.02,NNE,19,0.0,-999.0,32,-99.99,,,0.00,0.0,cwc,2013-04-25 08:50:00,
2013-04-25 02:55:00,47.2,22.7,30.01,NNE,20,0.0,-999.0,32,-99.99,,,0.00,0.0,cwc,2013-04-25 08:55:00,
2013-04-25 03:00:00,47.2,22.7,30.01,NNE,20,0.0,-999.0,32,-99.99,,,0.00,0.0,cwc,2013-04-25 09:00:00,
2013-04-25 03:05:00,47.1,22.6,30.01,NNE,19,0.0,-999.0,32,-99.99,,,0.00,0.0,cwc,2013-04-25 09:05:00,
2013-04-25 03:10:00,47.0,22.5,30.01,NNE,20,0.0,-999.0,32,-99.99,,,0.00,0.0,cwc,2013-04-25 09:10:00,
2013-04-25 03:15:00,46.9,22.4,30.01,NNE,20,0.0,-999.0,32,-99.99,,,0.00,0.0,cwc,2013-04-25 09:15:00,
2013-04-25 03:20:00,46.9,22.4,30.01,NNE,19,0.0,-999.0,32,-99.99,,,0.00,0.0,cwc,2013-04-25 09:20:00,
2013-04-25 03:25:00,46.8,22.3,30.00,NNE,19,0.0,-999.0,32,-99.99,,,0.00,0.0,cwc,2013-04-25 09:25:00,
2013-04-25 03:30:00,46.5,22.0,30.00,NNE,20,0.0,-999.0,32,-99.99,,,0.00,0.0,cwc,2013-04-25 09:30:00,
2013-04-25 03:35:00,46.0,21.5,30.00,NNE,20,1.0,-999.0,32,-99.99,,,0.00,0.0,cwc,2013-04-25 09:35:00,
2013-04-25 03:40:00,45.5,21.4,30.01,NNE,20,2.0,-999.0,33,-99.99,,,0.00,0.0,cwc,2013-04-25 09:40:00,
2013-04-25 03:45:00,45.2,21.1,30.00,NNE,20,3.0,-999.0,33,-99.99,,,0.00,0.0,cwc,2013-04-25 09:45:00,
2013-04-25 03:50:00,44.9,20.8,30.00,NNE,20,1.0,-999.0,33,-99.99,,,0.00,0.0,cwc,2013-04-25 09:50:00,
2013-04-25 03:55:00,44.7,20.6,30.00,NNE,20,4.0,-999.0,33,-99.99,,,0.00,0.0,cwc,2013-04-25 09:55:00,
2013-04-25 04:00:00,44.2,20.1,30.00,NNE,19,4.0,-999.0,33,-99.99,,,0.00,0.0,cwc,2013-04-25 10:00:00,
2013-04-25 04:05:00,43.8,20.0,30.00,NNE,20,1.0,-999.0,34,-99.99,,,0.00,0.0,cwc,2013-04-25 10:05:00,
2013-04-25 04:10:00,43.7,19.9,30.00,NNE,20,2.0,-999.0,34,-99.99,,,0.00,0.0,cwc,2013-04-25 10:10:00,
2013-04-25 04:15:00,43.9,20.1,30.00,NNE,20,0.0,-999.0,34,-99.99,,,0.00,0.0,cwc,2013-04-25 10:15:00,
2013-04-25 04:20:00,43.9,19.8,29.99,NNE,20,0.0,-999.0,33,-99.99,,,0.00,0.0,cwc,2013-04-25 10:20:00,
2013-04-25 04:25:00,43.8,19.7,29.99,NNE,19,0.0,-999.0,33,-99.99,,,0.00,0.0,cwc,2013-04-25 10:25:00,
2013-04-25 04:30:00,43.7,19.6,29.99,NNE,20,0.0,-999.0,33,-99.99,,,0.00,0.0,cwc,2013-04-25 10:30:00,
2013-04-25 04:35:00,43.8,19.7,29.99,NNE,19,0.0,-999.0,33,-99.99,,,0.00,0.0,cwc,2013-04-25 10:35:00,
2013-04-25 04:40:00,43.7,19.6,29.99,NNE,20,2.0,-999.0,33,-99.99,,,0.00,0.0,cwc,2013-04-25 10:40:00,
2013-04-25 04:45:00,43.7,19.9,29.99,NNE,20,2.0,-999.0,34,-99.99,,,0.00,0.0,cwc,2013-04-25 10:45:00,
2013-04-25 04:50:00,43.9,20.1,29.99,NNE,20,0.0,-999.0,34,-99.99,,,0.00,0.0,cwc,2013-04-25 10:50:00,
2013-04-25 04:55:00,43.8,20.0,29.99,NNE,19,1.0,-999.0,34,-99.99,,,0.00,0.0,cwc,2013-04-25 10:55:00,
2013-04-25 05:00:00,43.8,20.0,29.99,NNE,20,1.0,-999.0,34,-99.99,,,0.00,0.0,cwc,2013-04-25 11:00:00,
2013-04-25 05:05:00,44.0,20.2,29.99,NNE,20,2.0,-999.0,34,-99.99,,,0.00,0.0,cwc,2013-04-25 11:05:00,
2013-04-25 05:10:00,44.1,20.3,29.99,NNE,19,0.0,-999.0,34,-99.99,,,0.00,0.0,cwc,2013-04-25 11:10:00,
2013-04-25 05:15:00,44.2,20.4,29.98,NNE,19,0.0,-999.0,34,-99.99,,,0.00,0.0,cwc,2013-04-25 11:15:00,
2013-04-25 05:20:00,44.2,20.4,29.98,NNE,20,0.0,-999.0,34,-99.99,,,0.00,0.0,cwc,2013-04-25 11:20:00,
2013-04-25 05:25:00,44.2,20.4,29.98,NNE,20,0.0,-999.0,34,-99.99,,,0.00,0.0,cwc,2013-04-25 11:25:00,
2013-04-25 05:30:00,44.1,20.3,29.98,NNE,20,0.0,-999.0,34,-99.99,,,0.00,0.0,cwc,2013-04-25 11:30:00,
2013-04-25 05:35:00,44.0,20.6,29.99,NNE,19,0.0,-999.0,35,-99.99,,,0.00,0.0,cwc,2013-04-25 11:35:00,
2013-04-25 05:40:00,44.1,20.7,29.99,NNE,20,0.0,-999.0,35,-99.99,,,0.00,0.0,cwc,2013-04-25 11:40:00,
2013-04-25 05:45:00,44.4,20.6,29.99,NNE,19,0.0,-999.0,34,-99.99,,,0.00,0.0,cwc,2013-04-25 11:45:00,
2013-04-25 05:50:00,44.6,20.8,29.98,NNE,19,0.0,-999.0,34,-99.99,,,0.00,0.0,cwc,2013-04-25 11:50:00,
2013-04-25 05:55:00,44.6,20.8,29.98,NNE,20,1.0,-999.0,34,-99.99,,,0.00,0.0,cwc,2013-04-25 11:55:00,
2013-04-25 06:00:00,44.6,20.8,29.98,NNE,20,3.0,-999.0,34,-99.99,,,0.00,0.0,cwc,2013-04-25 12:00:00,
2013-04-25 06:10:00,44.5,20.7,29.98,NNE,19,0.0,-999.0,34,-99.99,,,0.00,0.0,cwc,2013-04-25 12:10:00,
2013-04-25 06:15:00,44.4,21.0,29.98,NNE,20,0.0,-999.0,35,-99.99,,,0.00,0.0,cwc,2013-04-25 12:15:00,
2013-04-25 06:20:00,44.2,20.4,29.98,NNE,20,0.0,-999.0,34,-99.99,,,0.00,0.0,cwc,2013-04-25 12:20:00,
2013-04-25 06:25:00,44.2,20.8,29.98,NNE,20,0.0,-999.0,35,-99.99,,,0.00,0.0,cwc,2013-04-25 12:25:00,
2013-04-25 06:30:00,44.1,20.7,29.98,NNE,20,0.0,-999.0,35,-99.99,,,0.00,0.0,cwc,2013-04-25 12:30:00,
2013-04-25 06:35:00,44.1,21.1,29.98,NNE,20,0.0,-999.0,36,-99.99,,,0.00,5.0,cwc,2013-04-25 12:35:00,
2013-04-25 06:40:00,44.0,20.6,29.99,NNE,20,0.0,-999.0,35,-99.99,,,0.00,5.0,cwc,2013-04-25 12:40:00,
2013-04-25 06:45:00,44.0,20.6,29.99,NNE,19,0.0,-999.0,35,-99.99,,,0.00,11.0,cwc,2013-04-25 12:45:00,
2013-04-25 06:50:00,43.9,20.5,29.99,NNE,19,0.0,-999.0,35,-99.99,,,0.00,14.0,cwc,2013-04-25 12:50:00,
2013-04-25 06:55:00,44.0,20.6,29.99,NNE,20,0.0,-999.0,35,-99.99,,,0.00,12.0,cwc,2013-04-25 12:55:00,
2013-04-25 07:00:00,44.1,20.7,29.99,NNE,20,0.0,-999.0,35,-99.99,,,0.00,16.0,cwc,2013-04-25 13:00:00,
2013-04-25 07:05:00,44.3,20.9,29.99,NNE,19,1.0,-999.0,35,-99.99,,,0.00,16.0,cwc,2013-04-25 13:05:00,
2013-04-25 07:10:00,44.5,21.1,29.99,NNE,20,0.0,-999.0,35,-99.99,,,0.00,21.0,cwc,2013-04-25 13:10:00,
2013-04-25 07:15:00,44.6,21.6,29.99,NNE,20,0.0,-999.0,36,-99.99,,,0.00,23.0,cwc,2013-04-25 13:15:00,
2013-04-25 07:20:00,44.6,21.6,29.99,NNE,19,0.0,-999.0,36,-99.99,,,0.00,28.0,cwc,2013-04-25 13:20:00,
2013-04-25 07:25:00,44.7,21.3,29.99,NNE,19,1.0,-999.0,35,-99.99,,,0.00,32.0,cwc,2013-04-25 13:25:00,
2013-04-25 07:30:00,45.0,21.6,29.99,NNE,20,0.0,-999.0,35,-99.99,,,0.00,40.0,cwc,2013-04-25 13:30:00,
2013-04-25 07:35:00,45.1,21.7,29.99,NNE,20,0.0,-999.0,35,-99.99,,,0.00,42.0,cwc,2013-04-25 13:35:00,
2013-04-25 07:40:00,45.4,22.0,29.99,NNE,20,0.0,-999.0,35,-99.99,,,0.00,40.0,cwc,2013-04-25 13:40:00,
2013-04-25 07:45:00,45.6,22.2,29.99,NNE,19,0.0,-999.0,35,-99.99,,,0.00,35.0,cwc,2013-04-25 13:45:00,
2013-04-25 07:50:00,45.8,22.4,29.99,NNE,19,0.0,-999.0,35,-99.99,,,0.00,49.0,cwc,2013-04-25 13:50:00,
2013-04-25 07:55:00,46.0,22.2,29.99,NNE,19,0.0,-999.0,34,-99.99,,,0.00,49.0,cwc,2013-04-25 13:55:00,
2013-04-25 08:00:00,46.1,22.7,29.99,NNE,19,0.0,-999.0,35,-99.99,,,0.00,53.0,cwc,2013-04-25 14:00:00,
2013-04-25 08:05:00,46.2,22.8,29.99,NNE,19,0.0,-999.0,35,-99.99,,,0.00,65.0,cwc,2013-04-25 14:05:00,
2013-04-25 08:10:00,46.3,22.9,29.99,NNE,20,0.0,-999.0,35,-99.99,,,0.00,62.0,cwc,2013-04-25 14:10:00,
2013-04-25 08:15:00,46.5,23.1,29.99,NNE,20,0.0,-999.0,35,-99.99,,,0.00,44.0,cwc,2013-04-25 14:15:00,
2013-04-25 08:20:00,46.7,22.9,29.99,NNE,19,0.0,-999.0,34,-99.99,,,0.00,76.0,cwc,2013-04-25 14:20:00,
2013-04-25 08:25:00,46.9,23.5,29.99,NNE,20,1.0,-999.0,35,-99.99,,,0.00,93.0,cwc,2013-04-25 14:25:00,
2013-04-25 08:30:00,47.0,23.6,29.99,NNE,20,1.0,-999.0,35,-99.99,,,0.00,104.0,cwc,2013-04-25 14:30:00,
2013-04-25 08:35:00,47.2,23.8,29.99,NNE,19,0.0,-999.0,35,-99.99,,,0.00,116.0,cwc,2013-04-25 14:35:00,
2013-04-25 08:40:00,47.5,23.7,29.99,NNE,19,0.0,-999.0,34,-99.99,,,0.00,105.0,cwc,2013-04-25 14:40:00,
2013-04-25 08:45:00,47.7,23.6,30.00,NNE,20,0.0,-999.0,33,-99.99,,,0.00,128.0,cwc,2013-04-25 14:45:00,
2013-04-25 08:50:00,48.0,23.9,29.99,NNE,20,1.0,-999.0,33,-99.99,,,0.00,155.0,cwc,2013-04-25 14:50:00,
2013-04-25 08:55:00,48.2,24.4,29.99,NNE,20,0.0,-999.0,34,-99.99,,,0.00,130.0,cwc,2013-04-25 14:55:00,
2013-04-25 09:00:00,48.5,24.4,29.99,NNE,19,1.0,-999.0,33,-99.99,,,0.00,130.0,cwc,2013-04-25 15:00:00,
2013-04-25 09:10:00,49.1,25.0,29.99,NE,34,4.0,-999.0,33,-99.99,,,0.00,204.0,cwc,2013-04-25 15:10:00,
2013-04-25 09:15:00,49.3,25.2,29.99,NE,40,5.0,-999.0,33,-99.99,,,0.00,199.0,cwc,2013-04-25 15:15:00,
2013-04-25 09:25:00,50.0,25.5,29.98,NE,41,6.0,-999.0,32,-99.99,,,0.00,172.0,cwc,2013-04-25 15:25:00,
2013-04-25 09:30:00,50.1,25.6,29.99,NE,42,3.0,-999.0,32,-99.99,,,0.00,162.0,cwc,2013-04-25 15:30:00,
2013-04-25 09:35:00,50.2,26.1,29.99,NE,41,1.0,-999.0,33,-99.99,,,0.00,160.0,cwc,2013-04-25 15:35:00,
2013-04-25 09:40:00,50.4,25.9,29.99,NE,42,4.0,-999.0,32,-99.99,,,0.00,190.0,cwc,2013-04-25 15:40:00,
2013-04-25 09:45:00,50.4,25.9,29.98,NE,42,1.0,-999.0,32,-99.99,,,0.00,193.0,cwc,2013-04-25 15:45:00,
2013-04-25 09:50:00,50.5,26.0,29.99,NE,42,4.0,-999.0,32,-99.99,,,0.00,172.0,cwc,2013-04-25 15:50:00,
2013-04-25 09:55:00,50.6,26.5,29.99,NE,42,1.0,-999.0,33,-99.99,,,0.00,179.0,cwc,2013-04-25 15:55:00,
2013-04-25 10:00:00,50.8,26.7,29.98,NE,42,0.0,-999.0,33,-99.99,,,0.00,281.0,cwc,2013-04-25 16:00:00,
2013-04-25 10:05:00,51.1,27.0,29.99,NE,42,1.0,-999.0,33,-99.99,,,0.00,234.0,cwc,2013-04-25 16:05:00,
2013-04-25 10:10:00,51.4,26.9,29.99,NE,42,1.0,-999.0,32,-99.99,,,0.00,239.0,cwc,2013-04-25 16:10:00,
2013-04-25 10:15:00,51.6,27.5,29.98,NE,42,2.0,-999.0,33,-99.99,,,0.00,213.0,cwc,2013-04-25 16:15:00,
2013-04-25 10:25:00,51.8,27.7,29.99,NE,41,1.0,-999.0,33,-99.99,,,0.00,220.0,cwc,2013-04-25 16:25:00,
2013-04-25 10:30:00,51.9,27.8,29.99,NE,41,1.0,-999.0,33,-99.99,,,0.00,192.0,cwc,2013-04-25 16:30:00,
2013-04-25 10:35:00,52.1,28.0,29.98,NE,41,3.0,-999.0,33,-99.99,,,0.00,163.0,cwc,2013-04-25 16:35:00,
2013-04-25 10:40:00,52.1,28.0,29.98,NE,41,0.0,-999.0,33,-99.99,,,0.00,221.0,cwc,2013-04-25 16:40:00,
2013-04-25 10:45:00,52.3,28.2,29.99,NE,41,0.0,-999.0,33,-99.99,,,0.00,431.0,cwc,2013-04-25 16:45:00,
2013-04-25 10:50:00,52.8,28.7,29.98,NE,41,0.0,-999.0,33,-99.99,,,0.00,647.0,cwc,2013-04-25 16:50:00,
2013-04-25 10:55:00,53.4,28.9,29.98,NE,41,0.0,-999.0,32,-99.99,,,0.00,318.0,cwc,2013-04-25 16:55:00,
2013-04-25 11:00:00,54.0,29.5,29.98,NE,41,4.0,-999.0,32,-99.99,,,0.00,315.0,cwc,2013-04-25 17:00:00,
2013-04-25 11:05:00,54.1,29.3,29.97,NE,40,2.0,-999.0,31,-99.99,,,0.00,294.0,cwc,2013-04-25 17:05:00,
2013-04-25 11:10:00,54.0,29.5,29.97,NE,40,0.0,-999.0,32,-99.99,,,0.00,234.0,cwc,2013-04-25 17:10:00,
2013-04-25 11:15:00,54.0,29.9,29.96,NE,40,2.0,-999.0,33,-99.99,,,0.00,241.0,cwc,2013-04-25 17:15:00,
2013-04-25 11:20:00,54.1,29.6,29.96,NE,40,2.0,-999.0,32,-99.99,,,0.00,239.0,cwc,2013-04-25 17:20:00,
2013-04-25 11:25:00,54.2,29.7,29.95,NE,40,2.0,-999.0,32,-99.99,,,0.00,265.0,cwc,2013-04-25 17:25:00,
2013-04-25 11:30:00,54.3,29.8,29.95,NE,40,3.0,-999.0,32,-99.99,,,0.00,297.0,cwc,2013-04-25 17:30:00,
2013-04-25 11:35:00,54.5,30.0,29.95,NE,40,4.0,-999.0,32,-99.99,,,0.00,309.0,cwc,2013-04-25 17:35:00,
2013-04-25 11:40:00,54.6,30.1,29.95,NE,42,0.0,-999.0,32,-99.99,,,0.00,334.0,cwc,2013-04-25 17:40:00,
2013-04-25 11:45:00,54.6,30.1,29.94,NE,44,0.0,-999.0,32,-99.99,,,0.00,325.0,cwc,2013-04-25 17:45:00,
2013-04-25 11:50:00,54.8,30.3,29.93,NE,44,4.0,-999.0,32,-99.99,,,0.00,325.0,cwc,2013-04-25 17:50:00,
2013-04-25 11:55:00,55.0,30.5,29.93,NE,43,1.0,-999.0,32,-99.99,,,0.00,301.0,cwc,2013-04-25 17:55:00,
2013-04-25 12:00:00,55.0,30.5,29.93,NE,44,2.0,-999.0,32,-99.99,,,0.00,311.0,cwc,2013-04-25 18:00:00,
2013-04-25 12:05:00,55.2,30.7,29.92,NE,44,0.0,-999.0,32,-99.99,,,0.00,339.0,cwc,2013-04-25 18:05:00,
2013-04-25 12:10:00,55.5,31.0,29.92,NE,44,0.0,-999.0,32,-99.99,,,0.00,410.0,cwc,2013-04-25 18:10:00,
2013-04-25 12:15:00,56.1,31.6,29.92,NE,44,0.0,-999.0,32,-99.99,,,0.00,404.0,cwc,2013-04-25 18:15:00,
2013-04-25 12:20:00,56.5,32.0,29.92,NE,44,1.0,-999.0,32,-99.99,,,0.00,323.0,cwc,2013-04-25 18:20:00,
2013-04-25 12:25:00,56.7,31.9,29.91,NE,44,0.0,-999.0,31,-99.99,,,0.00,334.0,cwc,2013-04-25 18:25:00,
2013-04-25 12:30:00,56.9,32.1,29.91,NE,44,2.0,-999.0,31,-99.99,,,0.00,355.0,cwc,2013-04-25 18:30:00,
2013-04-25 12:35:00,57.1,32.3,29.90,NE,44,2.0,-999.0,31,-99.99,,,0.00,378.0,cwc,2013-04-25 18:35:00,
2013-04-25 12:40:00,57.1,32.3,29.90,NE,44,0.0,-999.0,31,-99.99,,,0.00,374.0,cwc,2013-04-25 18:40:00,
2013-04-25 12:45:00,57.4,32.2,29.90,NE,45,0.0,-999.0,30,-99.99,,,0.00,369.0,cwc,2013-04-25 18:45:00,
2013-04-25 12:50:00,57.8,33.0,29.89,NE,46,0.0,-999.0,31,-99.99,,,0.00,434.0,cwc,2013-04-25 18:50:00,
2013-04-25 12:55:00,58.2,33.0,29.88,NE,48,1.0,-999.0,30,-99.99,,,0.00,403.0,cwc,2013-04-25 18:55:00,
2013-04-25 13:00:00,58.5,33.3,29.88,NE,48,0.0,-999.0,30,-99.99,,,0.00,628.0,cwc,2013-04-25 19:00:00,
2013-04-25 13:05:00,59.0,33.8,29.88,NE,49,1.0,-999.0,30,-99.99,,,0.00,1187.0,cwc,2013-04-25 19:05:00,
2013-04-25 13:10:00,59.6,34.0,29.87,NE,55,0.0,-999.0,29,-99.99,,,0.00,940.0,cwc,2013-04-25 19:10:00,
2013-04-25 13:15:00,60.7,35.1,29.87,NE,55,0.0,-999.0,29,-99.99,,,0.00,1095.0,cwc,2013-04-25 19:15:00,
2013-04-25 13:20:00,61.9,36.0,29.86,NE,55,1.0,-999.0,28,-99.99,,,0.00,1085.0,cwc,2013-04-25 19:20:00,
2013-04-25 13:25:00,62.5,35.9,29.85,NNW,344,1.0,-999.0,26,-99.99,,,0.00,731.0,cwc,2013-04-25 19:25:00,
2013-04-25 13:30:00,62.3,36.0,29.85,SSE,168,1.0,-999.0,27,-99.99,,,0.00,410.0,cwc,2013-04-25 19:30:00,
2013-04-25 13:35:00,62.2,35.9,29.85,SSW,211,8.0,-999.0,27,-99.99,,,0.00,638.0,cwc,2013-04-25 19:35:00,
2013-04-25 13:40:00,61.7,35.4,29.85,SW,224,4.0,-999.0,27,-99.99,,,0.00,499.0,cwc,2013-04-25 19:40:00,
2013-04-25 13:45:00,61.3,35.0,29.85,WSW,240,6.0,-999.0,27,-99.99,,,0.00,367.0,cwc,2013-04-25 19:45:00,
2013-04-25 13:50:00,61.4,35.5,29.85,SSW,193,3.0,-999.0,28,-99.99,,,0.00,237.0,cwc,2013-04-25 19:50:00,
2013-04-25 13:55:00,61.3,35.4,29.84,SW,225,7.0,-999.0,28,-99.99,,,0.00,237.0,cwc,2013-04-25 19:55:00,
2013-04-25 14:00:00,61.0,35.1,29.84,SSW,213,9.0,-999.0,28,-99.99,,,0.00,322.0,cwc,2013-04-25 20:00:00,
2013-04-25 14:05:00,60.8,34.9,29.84,SW,232,11.0,-999.0,28,-99.99,,,0.00,336.0,cwc,2013-04-25 20:05:00,
2013-04-25 14:10:00,60.9,35.0,29.84,South,182,3.0,-999.0,28,-99.99,,,0.00,563.0,cwc,2013-04-25 20:10:00,
2013-04-25 14:15:00,61.3,35.4,29.83,South,180,2.0,-999.0,28,-99.99,,,0.00,643.0,cwc,2013-04-25 20:15:00,
2013-04-25 14:20:00,62.0,35.7,29.83,SSE,163,5.0,-999.0,27,-99.99,,,0.00,457.0,cwc,2013-04-25 20:20:00,
2013-04-25 14:25:00,62.2,35.9,29.83,South,181,8.0,-999.0,27,-99.99,,,0.00,320.0,cwc,2013-04-25 20:25:00,
2013-04-25 14:30:00,62.0,35.7,29.83,South,182,11.0,-999.0,27,-99.99,,,0.00,257.0,cwc,2013-04-25 20:30:00,
2013-04-25 14:35:00,61.8,35.5,29.82,SW,226,7.0,-999.0,27,-99.99,,,0.00,343.0,cwc,2013-04-25 20:35:00,
2013-04-25 14:40:00,62.0,35.7,29.82,SSW,207,11.0,-999.0,27,-99.99,,,0.00,420.0,cwc,2013-04-25 20:40:00,
2013-04-25 14:45:00,62.6,36.3,29.81,SW,221,8.0,-999.0,27,-99.99,,,0.00,773.0,cwc,2013-04-25 20:45:00,
2013-04-25 14:50:00,63.5,37.2,29.81,SW,223,13.0,-999.0,27,-99.99,,,0.00,480.0,cwc,2013-04-25 20:50:00,
2013-04-25 14:55:00,64.7,38.1,29.80,SSW,212,9.0,-999.0,26,-99.99,,,0.00,851.0,cwc,2013-04-25 20:55:00,
2013-04-25 15:00:00,65.4,38.8,29.79,SSW,196,9.0,-999.0,26,-99.99,,,0.00,687.0,cwc,2013-04-25 21:00:00,
2013-04-25 15:05:00,65.5,38.5,29.79,WSW,252,13.0,-999.0,25,-99.99,,,0.00,619.0,cwc,2013-04-25 21:05:00,
2013-04-25 15:10:00,65.7,38.7,29.78,South,180,6.0,-999.0,25,-99.99,,,0.00,793.0,cwc,2013-04-25 21:10:00,
2013-04-25 15:15:00,65.9,38.9,29.77,SW,221,10.0,-999.0,25,-99.99,,,0.00,853.0,cwc,2013-04-25 21:15:00,
2013-04-25 15:20:00,66.0,39.0,29.76,SSW,192,3.0,-999.0,25,-99.99,,,0.00,775.0,cwc,2013-04-25 21:20:00,
2013-04-25 15:25:00,66.5,39.1,29.75,SW,221,12.0,-999.0,24,-99.99,,,0.00,824.0,cwc,2013-04-25 21:25:00,
2013-04-25 15:30:00,66.1,39.1,29.75,South,191,15.0,-999.0,25,-99.99,,,0.00,814.0,cwc,2013-04-25 21:30:00,
2013-04-25 15:35:00,66.3,38.9,29.74,SSE,155,3.0,-999.0,24,-99.99,,,0.00,220.0,cwc,2013-04-25 21:35:00,
2013-04-25 15:45:00,67.1,39.7,29.73,South,186,3.0,-999.0,24,-99.99,,,0.00,621.0,cwc,2013-04-25 21:45:00,
2013-04-25 15:50:00,67.2,39.8,29.72,SW,221,14.0,-999.0,24,-99.99,,,0.00,373.0,cwc,2013-04-25 21:50:00,
2013-04-25 15:55:00,66.7,39.3,29.72,SSW,209,9.0,-999.0,24,-99.99,,,0.00,316.0,cwc,2013-04-25 21:55:00,
2013-04-25 16:00:00,66.5,39.1,29.71,SSW,203,7.0,-999.0,24,-99.99,,,0.00,338.0,cwc,2013-04-25 22:00:00,
2013-04-25 16:05:00,66.8,39.4,29.71,SW,232,11.0,-999.0,24,-99.99,,,0.00,350.0,cwc,2013-04-25 22:05:00,
2013-04-25 16:10:00,66.8,39.4,29.72,WSW,249,5.0,-999.0,24,-99.99,,,0.00,272.0,cwc,2013-04-25 22:10:00,
2013-04-25 16:15:00,66.5,39.1,29.71,SW,225,14.0,-999.0,24,-99.99,,,0.00,316.0,cwc,2013-04-25 22:15:00,
2013-04-25 16:20:00,66.5,39.1,29.70,WSW,248,7.0,-999.0,24,-99.99,,,0.00,526.0,cwc,2013-04-25 22:20:00,
2013-04-25 16:25:00,67.0,40.0,29.70,SW,236,8.0,-999.0,25,-99.99,,,0.00,598.0,cwc,2013-04-25 22:25:00,
2013-04-25 16:30:00,67.6,40.2,29.70,NW,318,4.0,-999.0,24,-99.99,,,0.00,726.0,cwc,2013-04-25 22:30:00,
2013-04-25 16:35:00,67.7,40.3,29.70,SSW,209,15.0,-999.0,24,-99.99,,,0.00,364.0,cwc,2013-04-25 22:35:00,
2013-04-25 16:40:00,67.4,40.0,29.70,SW,223,3.0,-999.0,24,-99.99,,,0.00,243.0,cwc,2013-04-25 22:40:00,
2013-04-25 16:45:00,67.0,40.0,29.70,SW,225,7.0,-999.0,25,-99.99,,,0.00,141.0,cwc,2013-04-25 22:45:00,
2013-04-25 16:50:00,66.7,40.8,29.71,SW,232,10.0,-999.0,28,-99.99,,,0.00,199.0,cwc,2013-04-25 22:50:00,
2013-04-25 16:55:00,66.2,39.9,29.71,WSW,240,13.0,-999.0,27,-99.99,,,0.00,394.0,cwc,2013-04-25 22:55:00,
2013-04-25 17:00:00,66.0,40.1,29.71,SW,229,16.0,-999.0,28,-99.99,,,0.00,327.0,cwc,2013-04-25 23:00:00,
2013-04-25 17:05:00,66.3,40.0,29.71,SW,228,9.0,-999.0,27,-99.99,,,0.00,541.0,cwc,2013-04-25 23:05:00,
2013-04-25 17:10:00,66.2,39.9,29.71,SW,225,11.0,-999.0,27,-99.99,,,0.00,548.0,cwc,2013-04-25 23:10:00,
2013-04-25 17:15:00,66.6,40.3,29.71,SW,227,13.0,-999.0,27,-99.99,,,0.00,531.0,cwc,2013-04-25 23:15:00,
2013-04-25 17:20:00,66.5,40.2,29.71,South,171,4.0,-999.0,27,-99.99,,,0.00,589.0,cwc,2013-04-25 23:20:00,
2013-04-25 17:25:00,66.5,40.2,29.70,SSW,210,14.0,-999.0,27,-99.99,,,0.00,496.0,cwc,2013-04-25 23:25:00,
2013-04-25 17:30:00,66.1,40.2,29.70,South,169,22.0,-999.0,28,-99.99,,,0.00,422.0,cwc,2013-04-25 23:30:00,
2013-04-25 17:35:00,66.0,40.1,29.70,SSW,195,13.0,-999.0,28,-99.99,,,0.00,355.0,cwc,2013-04-25 23:35:00,
2013-04-25 17:40:00,65.0,39.4,29.71,SSW,199,13.0,-999.0,29,-99.99,,,0.00,227.0,cwc,2013-04-25 23:40:00,
2013-04-25 17:45:00,64.4,39.2,29.72,SSE,159,8.0,-999.0,30,-99.99,,,0.00,204.0,cwc,2013-04-25 23:45:00,
2013-04-25 17:50:00,63.9,39.1,29.72,SSW,192,13.0,-999.0,31,-99.99,,,0.00,111.0,cwc,2013-04-25 23:50:00,
2013-04-25 17:55:00,63.2,38.7,29.72,SSW,199,19.0,-999.0,32,-99.99,,,0.00,125.0,cwc,2013-04-25 23:55:00,
2013-04-25 18:00:00,62.8,38.3,29.71,SE,145,9.0,-999.0,32,-99.99,,,0.00,104.0,cwc,2013-04-26 00:00:00,
2013-04-25 18:05:00,62.7,38.2,29.72,SSW,192,11.0,-999.0,32,-99.99,,,0.00,98.0,cwc,2013-04-26 00:05:00,
2013-04-25 18:10:00,62.5,38.4,29.72,SSE,161,6.0,-999.0,33,-99.99,,,0.00,107.0,cwc,2013-04-26 00:10:00,
2013-04-25 18:15:00,62.3,38.5,29.72,South,180,7.0,-999.0,34,-99.99,,,0.00,134.0,cwc,2013-04-26 00:15:00,
2013-04-25 18:20:00,62.1,38.7,29.72,South,189,8.0,-999.0,35,-99.99,,,0.00,105.0,cwc,2013-04-26 00:20:00,
2013-04-25 18:25:00,61.9,38.5,29.72,SSE,165,3.0,-999.0,35,-99.99,,,0.00,56.0,cwc,2013-04-26 00:25:00,
2013-04-25 18:30:00,61.8,38.4,29.71,South,173,0.0,-999.0,35,-99.99,,,0.00,58.0,cwc,2013-04-26 00:30:00,
2013-04-25 18:35:00,61.6,38.2,29.72,South,176,3.0,-999.0,35,-99.99,,,0.00,39.0,cwc,2013-04-26 00:35:00,
2013-04-25 18:40:00,61.5,38.1,29.72,SSE,162,7.0,-999.0,35,-99.99,,,0.00,30.0,cwc,2013-04-26 00:40:00,
2013-04-25 18:45:00,61.3,38.3,29.72,South,180,5.0,-999.0,36,-99.99,,,0.00,37.0,cwc,2013-04-26 00:45:00,
2013-04-25 18:50:00,61.1,38.4,29.71,South,179,0.0,-999.0,37,-99.99,,,0.00,26.0,cwc,2013-04-26 00:50:00,
2013-04-25 18:55:00,60.9,38.2,29.72,South,176,0.0,-999.0,37,-99.99,,,0.00,23.0,cwc,2013-04-26 00:55:00,
2013-04-25 19:00:00,60.5,37.8,29.72,South,176,0.0,-999.0,37,-99.99,,,0.00,14.0,cwc,2013-04-26 01:00:00,
2013-04-25 19:05:00,60.3,38.3,29.72,South,176,0.0,-999.0,39,-99.99,,,0.00,11.0,cwc,2013-04-26 01:05:00,
2013-04-25 19:10:00,59.9,38.3,29.72,ESE,122,2.0,-999.0,40,-99.99,,,0.00,7.0,cwc,2013-04-26 01:10:00,
2013-04-25 19:15:00,59.6,38.0,29.72,ESE,123,1.0,-999.0,40,-99.99,,,0.00,5.0,cwc,2013-04-26 01:15:00,
2013-04-25 19:25:00,59.2,38.0,29.73,ESE,122,0.0,-999.0,41,-99.99,,,0.00,0.0,cwc,2013-04-26 01:25:00,
2013-04-25 19:30:00,59.0,37.8,29.74,ESE,122,0.0,-999.0,41,-99.99,,,0.00,0.0,cwc,2013-04-26 01:30:00,
2013-04-25 19:35:00,59.0,37.8,29.74,ESE,123,0.0,-999.0,41,-99.99,,,0.00,0.0,cwc,2013-04-26 01:35:00,
2013-04-25 19:45:00,58.8,37.2,29.73,NNE,19,4.0,-999.0,40,-99.99,,,0.00,0.0,cwc,2013-04-26 01:45:00,
2013-04-25 19:50:00,58.6,36.6,29.73,NE,52,2.0,-999.0,39,-99.99,,,0.00,0.0,cwc,2013-04-26 01:50:00,
2013-04-25 19:55:00,58.2,36.6,29.74,North,10,8.0,-999.0,40,-99.99,,,0.00,0.0,cwc,2013-04-26 01:55:00,
2013-04-25 20:00:00,57.5,36.6,29.76,NE,53,7.0,-999.0,42,-99.99,,,0.00,0.0,cwc,2013-04-26 02:00:00,
2013-04-25 20:10:00,56.3,36.5,29.77,NNW,327,4.0,-999.0,45,-99.99,,,0.00,0.0,cwc,2013-04-26 02:10:00,
2013-04-25 20:15:00,55.8,36.4,29.78,NNW,344,1.0,-999.0,46,-99.99,,,0.00,0.0,cwc,2013-04-26 02:15:00,
2013-04-25 20:20:00,55.5,36.4,29.78,NNE,30,4.0,-999.0,47,-99.99,,,0.00,0.0,cwc,2013-04-26 02:20:00,
2013-04-25 20:25:00,55.3,36.2,29.78,North,350,0.0,-999.0,47,-99.99,,,0.00,0.0,cwc,2013-04-26 02:25:00,
2013-04-25 20:30:00,55.1,36.4,29.80,NNE,26,0.0,-999.0,48,-99.99,,,0.00,0.0,cwc,2013-04-26 02:30:00,
2013-04-25 20:35:00,55.1,36.4,29.81,NNE,26,0.0,-999.0,48,-99.99,,,0.00,0.0,cwc,2013-04-26 02:35:00,
2013-04-25 20:40:00,55.0,36.6,29.81,ENE,61,4.0,-999.0,49,-99.99,,,0.00,0.0,cwc,2013-04-26 02:40:00,
2013-04-25 20:45:00,54.8,36.4,29.82,NNE,28,10.0,-999.0,49,-99.99,,,0.00,0.0,cwc,2013-04-26 02:45:00,
2013-04-25 20:50:00,54.6,36.2,29.82,NE,36,3.0,-999.0,49,-99.99,,,0.00,0.0,cwc,2013-04-26 02:50:00,
2013-04-25 20:55:00,54.3,36.3,29.82,NE,46,4.0,-999.0,50,-99.99,,,0.00,0.0,cwc,2013-04-26 02:55:00,
2013-04-25 21:00:00,54.1,35.7,29.83,NE,45,1.0,-999.0,49,-99.99,,,0.00,0.0,cwc,2013-04-26 03:00:00,
2013-04-25 21:05:00,54.0,35.6,29.83,NE,46,3.0,-999.0,49,-99.99,,,0.00,0.0,cwc,2013-04-26 03:05:00,
2013-04-25 21:10:00,53.9,35.5,29.83,NNE,24,1.0,-999.0,49,-99.99,,,0.00,0.0,cwc,2013-04-26 03:10:00,
2013-04-25 21:15:00,53.7,35.7,29.84,NE,40,5.0,-999.0,50,-99.99,,,0.00,0.0,cwc,2013-04-26 03:15:00,
2013-04-25 21:20:00,53.7,35.7,29.84,NE,38,8.0,-999.0,50,-99.99,,,0.00,0.0,cwc,2013-04-26 03:20:00,
2013-04-25 21:25:00,53.6,36.0,29.83,NE,37,3.0,-999.0,51,-99.99,,,0.00,0.0,cwc,2013-04-26 03:25:00,
2013-04-25 21:30:00,53.4,36.8,29.83,NE,55,5.0,-999.0,54,-99.99,,,0.00,0.0,cwc,2013-04-26 03:30:00,
2013-04-25 21:35:00,53.2,37.0,29.83,ENE,67,4.0,-999.0,55,-99.99,,,0.00,0.0,cwc,2013-04-26 03:35:00,
2013-04-25 21:40:00,53.0,37.2,29.83,NE,45,4.0,-999.0,56,-99.99,,,0.00,0.0,cwc,2013-04-26 03:40:00,
2013-04-25 21:45:00,52.8,37.0,29.84,NE,38,4.0,-999.0,56,-99.99,,,0.00,0.0,cwc,2013-04-26 03:45:00,
2013-04-25 21:50:00,52.6,36.8,29.84,NE,48,2.0,-999.0,56,-99.99,,,0.00,0.0,cwc,2013-04-26 03:50:00,
2013-04-25 21:55:00,52.6,36.8,29.84,ENE,59,3.0,-999.0,56,-99.99,,,0.00,0.0,cwc,2013-04-26 03:55:00,
2013-04-25 22:00:00,52.5,36.7,29.84,ENE,71,1.0,-999.0,56,-99.99,,,0.00,0.0,cwc,2013-04-26 04:00:00,
2013-04-25 22:05:00,52.5,36.7,29.84,ENE,70,4.0,-999.0,56,-99.99,,,0.00,0.0,cwc,2013-04-26 04:05:00,
2013-04-25 22:10:00,52.6,36.4,29.84,East,101,0.0,-999.0,55,-99.99,,,0.00,0.0,cwc,2013-04-26 04:10:00,
2013-04-25 22:15:00,52.6,36.4,29.85,ESE,105,3.0,-999.0,55,-99.99,,,0.00,0.0,cwc,2013-04-26 04:15:00,
2013-04-25 22:20:00,52.7,36.9,29.85,SE,146,0.0,-999.0,56,-99.99,,,0.00,0.0,cwc,2013-04-26 04:20:00,
2013-04-25 22:25:00,52.6,37.1,29.86,South,175,8.0,-999.0,57,-99.99,,,0.00,0.0,cwc,2013-04-26 04:25:00,
2013-04-25 22:30:00,52.4,37.3,29.86,SSE,163,3.0,-999.0,58,-99.99,,,0.00,0.0,cwc,2013-04-26 04:30:00,
2013-04-25 22:35:00,52.2,37.1,29.86,SE,130,2.0,-999.0,58,-99.99,,,0.00,0.0,cwc,2013-04-26 04:35:00,
2013-04-25 22:40:00,52.0,36.9,29.86,ESE,120,2.0,-999.0,58,-99.99,,,0.00,0.0,cwc,2013-04-26 04:40:00,
2013-04-25 22:45:00,51.8,37.0,29.87,South,174,2.0,-999.0,59,-99.99,,,0.00,0.0,cwc,2013-04-26 04:45:00,
2013-04-25 22:50:00,51.7,36.9,29.87,ESE,106,1.0,-999.0,59,-99.99,,,0.00,0.0,cwc,2013-04-26 04:50:00,
2013-04-25 22:55:00,51.5,37.1,29.86,ENE,75,2.0,-999.0,60,-99.99,,,0.00,0.0,cwc,2013-04-26 04:55:00,
2013-04-25 23:00:00,51.4,37.0,29.86,ENE,59,4.0,-999.0,60,-99.99,,,0.00,0.0,cwc,2013-04-26 05:00:00,
2013-04-25 23:05:00,51.2,36.8,29.86,ENE,59,0.0,-999.0,60,-99.99,,,0.00,0.0,cwc,2013-04-26 05:05:00,
2013-04-25 23:10:00,51.0,36.6,29.86,ENE,59,2.0,-999.0,60,-99.99,,,0.00,0.0,cwc,2013-04-26 05:10:00,
2013-04-25 23:15:00,50.9,36.5,29.86,ENE,59,1.0,-999.0,60,-99.99,,,0.00,0.0,cwc,2013-04-26 05:15:00,
2013-04-25 23:20:00,50.8,36.0,29.86,ENE,61,0.0,-999.0,59,-99.99,,,0.00,0.0,cwc,2013-04-26 05:20:00,
2013-04-25 23:25:00,50.7,36.3,29.87,East,82,7.0,-999.0,60,-99.99,,,0.00,0.0,cwc,2013-04-26 05:25:00,
2013-04-25 23:30:00,50.7,36.3,29.87,SE,130,0.0,-999.0,60,-99.99,,,0.00,0.0,cwc,2013-04-26 05:30:00,
2013-04-25 23:35:00,50.7,36.7,29.87,SE,130,0.0,-999.0,61,-99.99,,,0.00,0.0,cwc,2013-04-26 05:35:00,
2013-04-25 23:40:00,50.6,36.6,29.87,SE,130,2.0,-999.0,61,-99.99,,,0.00,0.0,cwc,2013-04-26 05:40:00,
2013-04-25 23:45:00,50.6,36.6,29.87,SE,131,0.0,-999.0,61,-99.99,,,0.00,0.0,cwc,2013-04-26 05:45:00,
2013-04-25 23:50:00,50.5,36.8,29.88,ESE,121,1.0,-999.0,62,-99.99,,,0.00,0.0,cwc,2013-04-26 05:50:00,
2013-04-25 23:55:00,50.4,36.7,29.88,East,90,2.0,-999.0,62,-99.99,,,0.00,0.0,cwc,2013-04-26 05:55:00,